Time;durP1;ratioP1;P1;durP2;ratioP2;P2;SDS_P1;SDS_P2;PMS_P1;PMS_P2;Temp;Humidity;BMP_temperature;BMP_pressure;BME280_temperature;BME280_humidity;BME280_pressure;Samples;Min_cycle;Max_cycle;Signal;HPM_P1;HPM_P2
2022/11/13 00:00:54;;;;;;;6.88;3.20;;;;;;;10.87;57.07;100986.69;5051300;28;20481;-85
2022/11/13 00:03:20;;;;;;;6.97;3.22;;;;;;;10.61;57.89;100995.09;5049599;28;20086;-85
2022/11/13 00:05:45;;;;;;;4.37;2.47;;;;;;;10.52;58.18;101001.94;5051274;28;20029;-85
2022/11/13 00:08:11;;;;;;;6.50;2.92;;;;;;;10.38;58.95;100993.09;5050697;28;20362;-85
2022/11/13 00:10:36;;;;;;;6.13;2.78;;;;;;;10.46;58.70;100994.66;5050823;28;20462;-85
2022/11/13 00:13:02;;;;;;;5.32;2.83;;;;;;;10.46;59.37;100997.38;5050054;28;20048;-85
2022/11/13 00:15:27;;;;;;;7.40;3.13;;;;;;;10.35;59.76;101001.78;5050663;28;20031;-85
2022/11/13 00:17:52;;;;;;;5.03;2.88;;;;;;;10.35;59.76;100999.84;5049847;28;20025;-85
2022/11/13 00:20:18;;;;;;;5.20;2.30;;;;;;;10.32;59.29;100994.03;5049743;28;20036;-85
2022/11/13 00:22:43;;;;;;;8.07;3.75;;;;;;;10.36;58.44;100987.91;5050777;28;20751;-85
2022/11/13 00:25:08;;;;;;;6.88;3.22;;;;;;;10.25;58.03;100992.25;5050886;28;20367;-85
2022/11/13 00:27:34;;;;;;;7.10;3.35;;;;;;;10.26;58.96;100990.34;5050666;28;20122;-85
2022/11/13 00:29:59;;;;;;;9.88;4.10;;;;;;;10.27;58.88;100989.31;5050492;28;20667;-85
2022/11/13 00:32:25;;;;;;;7.35;2.92;;;;;;;10.50;58.42;100976.81;5050483;28;20052;-85
2022/11/13 00:34:51;;;;;;;7.82;3.33;;;;;;;10.23;58.38;100978.00;5048033;28;20407;-85
2022/11/13 00:37:16;;;;;;;7.63;3.55;;;;;;;10.24;59.67;100974.25;5050018;28;20330;-85
2022/11/13 00:39:41;;;;;;;8.45;3.28;;;;;;;10.35;58.20;100979.97;5050069;28;20059;-85
2022/11/13 00:42:06;;;;;;;7.37;3.87;;;;;;;10.26;58.68;100971.28;5049355;28;20070;-85
2022/11/13 00:44:32;;;;;;;11.03;3.33;;;;;;;10.21;59.48;100971.97;5047816;28;20258;-85
2022/11/13 00:46:57;;;;;;;9.77;3.33;;;;;;;10.12;58.94;100971.47;5050305;28;20262;-85
2022/11/13 00:49:22;;;;;;;9.10;3.87;;;;;;;10.08;59.61;100970.28;5049603;28;20262;-85
2022/11/13 00:51:47;;;;;;;6.50;3.42;;;;;;;10.09;59.56;100966.47;5050373;28;20258;-86
2022/11/13 00:54:13;;;;;;;9.23;3.87;;;;;;;10.11;58.82;100964.34;5048735;28;20041;-85
2022/11/13 00:56:38;;;;;;;6.35;3.13;;;;;;;10.16;59.18;100967.22;5050191;28;20731;-85
2022/11/13 00:59:03;;;;;;;8.80;4.10;;;;;;;9.92;60.11;100964.44;5050288;28;20674;-85
2022/11/13 01:01:28;;;;;;;8.30;3.47;;;;;;;10.05;59.98;100957.09;5050331;28;20261;-85
2022/11/13 01:03:54;;;;;;;6.78;3.78;;;;;;;9.81;60.79;100959.75;5049592;28;20302;-85
2022/11/13 01:06:21;;;;;;;9.98;4.00;;;;;;;9.90;60.17;100966.56;5050074;28;20047;-85
2022/11/13 01:08:46;;;;;;;7.38;3.53;;;;;;;9.84;59.66;100951.13;5050188;28;20033;-85
2022/11/13 01:11:18;;;;;;;7.85;4.32;;;;;;;9.68;60.43;100950.69;5049702;28;20035;-85
2022/11/13 01:13:47;;;;;;;8.13;3.85;;;;;;;9.78;59.92;100954.78;5048910;28;20025;-85
2022/11/13 01:16:13;;;;;;;7.47;4.47;;;;;;;9.78;60.80;100957.50;5047610;28;20025;-85
2022/11/13 01:18:40;;;;;;;6.47;3.50;;;;;;;9.77;60.15;100947.66;5050144;28;20104;-85
2022/11/13 01:21:14;;;;;;;6.60;3.40;;;;;;;9.67;60.79;100953.66;5049797;28;20074;-85
2022/11/13 01:23:40;;;;;;;8.70;4.00;;;;;;;9.56;60.39;100949.78;5048629;28;20397;-85
2022/11/13 01:26:29;;;;;;;7.43;3.25;;;;;;;9.63;60.47;100947.00;5048400;28;20068;-85
2022/11/13 01:28:57;;;;;;;6.97;3.28;;;;;;;9.37;60.44;100938.94;5047901;28;20028;-85
2022/11/13 01:31:28;;;;;;;7.65;3.88;;;;;;;9.49;60.32;100941.72;5050032;28;20048;-85
2022/11/13 01:33:54;;;;;;;5.68;2.75;;;;;;;9.39;60.25;100936.81;5047474;28;20028;-85
2022/11/13 01:36:23;;;;;;;5.03;2.60;;;;;;;9.63;59.46;100934.22;5049921;28;20052;-85
2022/11/13 01:38:49;;;;;;;5.47;2.55;;;;;;;9.43;60.13;100939.91;5049761;28;20488;-85
2022/11/13 01:41:18;;;;;;;6.57;3.58;;;;;;;9.36;60.57;100940.00;5046369;28;20036;-85
2022/11/13 01:43:43;;;;;;;6.88;3.45;;;;;;;9.57;60.96;100932.41;5049039;28;20470;-85
2022/11/13 01:46:16;;;;;;;11.02;5.07;;;;;;;9.66;60.35;100927.50;5049504;28;20041;-85
2022/11/13 01:48:48;;;;;;;7.13;3.65;;;;;;;9.48;60.95;100923.72;5044138;28;20064;-85
2022/11/13 01:51:29;;;;;;;7.03;3.35;;;;;;;9.39;59.52;100920.50;5050165;28;20044;-85
2022/11/13 01:53:55;;;;;;;7.82;3.70;;;;;;;9.48;59.52;100912.03;5050950;28;20049;-85
2022/11/13 01:56:21;;;;;;;9.63;3.47;;;;;;;9.37;60.35;100913.59;5053672;28;20025;-85
2022/11/13 01:58:53;;;;;;;6.35;3.78;;;;;;;9.40;60.40;100915.84;5053068;28;20021;-85
2022/11/13 02:01:18;;;;;;;7.40;3.70;;;;;;;9.35;60.46;100913.84;5053302;28;20102;-86
2022/11/13 02:03:43;;;;;;;5.15;2.38;;;;;;;9.36;59.62;100914.69;5053166;28;20096;-85
2022/11/13 02:06:09;;;;;;;4.78;2.38;;;;;;;9.38;59.80;100912.53;5052927;28;20112;-85
2022/11/13 02:08:34;;;;;;;5.60;2.58;;;;;;;9.45;60.14;100908.69;5053161;28;20029;-85
2022/11/13 02:11:00;;;;;;;7.65;3.13;;;;;;;9.31;59.78;100913.47;5053215;28;20025;-85
2022/11/13 02:13:25;;;;;;;7.70;3.10;;;;;;;9.39;58.99;100906.88;5052792;28;20495;-85
2022/11/13 02:15:52;;;;;;;6.95;3.10;;;;;;;9.31;59.80;100901.75;5053219;28;20029;-86
2022/11/13 02:18:20;;;;;;;5.47;2.60;;;;;;;9.15;59.43;100897.75;5053175;28;20478;-85
2022/11/13 02:21:06;;;;;;;6.93;3.17;;;;;;;9.03;59.41;100893.06;5053625;28;20025;-86
2022/11/13 02:23:39;;;;;;;6.95;2.85;;;;;;;9.27;58.50;100889.66;5053045;28;20045;-86
2022/11/13 02:26:05;;;;;;;6.05;3.10;;;;;;;9.47;58.29;100889.41;5053822;28;20555;-86
2022/11/13 02:28:30;;;;;;;7.05;2.83;;;;;;;9.63;57.29;100893.38;5053895;28;20033;-86
2022/11/13 02:30:55;;;;;;;7.27;3.43;;;;;;;9.54;58.09;100884.69;5053600;28;20044;-85
2022/11/13 02:33:20;;;;;;;9.02;3.25;;;;;;;9.60;58.15;100887.56;5041305;28;20275;-85
2022/11/13 02:35:46;;;;;;;7.43;3.07;;;;;;;9.61;57.80;100879.16;5032970;28;20119;-85
2022/11/13 02:38:11;;;;;;;8.83;3.23;;;;;;;9.51;58.73;100879.72;5032821;28;20267;-85
2022/11/13 02:40:37;;;;;;;4.68;2.22;;;;;;;9.50;58.58;100879.97;5048947;28;20286;-85
2022/11/13 02:43:03;;;;;;;9.25;3.50;;;;;;;9.50;58.75;100883.50;5032442;28;20034;-85
2022/11/13 02:45:28;;;;;;;6.60;2.87;;;;;;;9.81;57.16;100875.31;5032231;28;20458;-85
2022/11/13 02:47:53;;;;;;;9.10;4.07;;;;;;;9.64;57.65;100884.13;5035608;28;20635;-85
2022/11/13 02:50:19;;;;;;;6.13;3.13;;;;;;;9.75;58.26;100879.81;5052754;28;20029;-85
2022/11/13 02:52:44;;;;;;;6.32;2.70;;;;;;;9.63;58.21;100879.75;5045718;28;20525;-85
2022/11/13 02:55:09;;;;;;;11.53;3.90;;;;;;;9.44;59.19;100868.91;5032919;28;20029;-85
2022/11/13 02:57:34;;;;;;;7.00;3.23;;;;;;;9.48;58.74;100863.81;5032633;28;20259;-85
2022/11/13 03:00:00;;;;;;;8.40;4.50;;;;;;;9.54;58.67;100867.53;5032415;28;20267;-85
2022/11/13 03:02:25;;;;;;;5.87;2.97;;;;;;;9.54;58.88;100860.19;5035652;28;20037;-85
2022/11/13 03:04:50;;;;;;;7.90;3.90;;;;;;;9.40;58.56;100864.97;5052053;28;20262;-85
2022/11/13 03:07:15;;;;;;;5.72;2.88;;;;;;;9.31;58.21;100858.22;5052328;28;20258;-86
2022/11/13 03:09:41;;;;;;;8.05;3.88;;;;;;;9.31;57.94;100861.78;5052827;28;20044;-85
2022/11/13 03:12:08;;;;;;;4.93;2.55;;;;;;;9.37;58.04;100851.84;5052006;28;20185;-85
2022/11/13 03:14:33;;;;;;;7.47;2.80;;;;;;;9.56;56.78;100852.63;5052444;28;20036;-85
2022/11/13 03:16:59;;;;;;;7.82;3.38;;;;;;;9.42;57.18;100853.84;5052235;28;20401;-85
2022/11/13 03:19:24;;;;;;;5.90;3.10;;;;;;;9.28;58.42;100858.66;5052798;28;20470;-85
2022/11/13 03:21:49;;;;;;;7.97;4.20;;;;;;;9.13;59.01;100850.91;5052013;28;20269;-85
2022/11/13 03:24:15;;;;;;;5.97;2.63;;;;;;;9.21;58.26;100859.56;5051414;28;20036;-85
2022/11/13 03:26:40;;;;;;;4.97;2.40;;;;;;;9.36;58.57;100855.63;5052123;28;20083;-85
2022/11/13 03:29:05;;;;;;;6.28;2.58;;;;;;;9.11;58.72;100851.13;5051941;28;20029;-85
2022/11/13 03:31:31;;;;;;;6.47;3.80;;;;;;;9.12;58.23;100852.78;5052477;28;20033;-85
2022/11/13 03:33:56;;;;;;;4.40;2.70;;;;;;;9.22;59.13;100852.25;5051692;28;20139;-85
2022/11/13 03:36:21;;;;;;;7.28;3.15;;;;;;;9.14;59.04;100845.22;5051810;28;20747;-85
2022/11/13 03:38:47;;;;;;;7.72;3.15;;;;;;;9.22;58.37;100850.34;5051927;28;20028;-85
2022/11/13 03:41:13;;;;;;;5.88;3.35;;;;;;;9.19;58.48;100850.00;5052536;28;20108;-85
2022/11/13 03:43:39;;;;;;;7.05;3.97;;;;;;;9.27;57.95;100844.22;5051381;28;20064;-85
2022/11/13 03:46:05;;;;;;;6.72;3.60;;;;;;;9.10;58.32;100842.13;5051853;28;20036;-85
2022/11/13 03:48:31;;;;;;;6.95;4.25;;;;;;;9.08;58.31;100846.13;5052385;28;20045;-85
2022/11/13 03:50:56;;;;;;;7.10;3.83;;;;;;;9.36;55.14;100839.28;5050271;28;20033;-85
2022/11/13 03:53:21;;;;;;;6.55;3.30;;;;;;;9.56;55.85;100839.00;5039943;28;20034;-85
2022/11/13 03:55:47;;;;;;;6.25;2.85;;;;;;;9.41;55.95;100836.72;5031626;28;20029;-85
2022/11/13 03:58:13;;;;;;;5.18;2.95;;;;;;;9.02;57.05;100845.16;5031864;28;20030;-85
2022/11/13 04:00:39;;;;;;;8.13;3.40;;;;;;;9.11;57.17;100837.53;5031385;28;20030;-86
2022/11/13 04:03:04;;;;;;;4.85;2.53;;;;;;;8.91;57.37;100833.13;5029798;28;20038;-85
2022/11/13 04:05:30;;;;;;;6.97;2.75;;;;;;;8.99;57.81;100830.13;5031655;28;20040;-85
2022/11/13 04:07:55;;;;;;;8.32;2.90;;;;;;;9.05;57.51;100833.00;5031094;28;20025;-85
2022/11/13 04:10:20;;;;;;;3.97;2.50;;;;;;;9.08;57.51;100832.53;5031028;28;20037;-84
2022/11/13 04:12:46;;;;;;;6.47;2.55;;;;;;;9.03;57.49;100824.25;5030891;28;20283;-85
2022/11/13 04:15:11;;;;;;;5.97;2.60;;;;;;;9.03;57.48;100824.25;5030226;28;20034;-84
2022/11/13 04:17:36;;;;;;;5.13;2.60;;;;;;;9.20;55.75;100825.25;5031746;28;20098;-85
2022/11/13 04:20:02;;;;;;;4.73;2.50;;;;;;;9.17;55.51;100822.97;5051245;28;20032;-85
2022/11/13 04:22:28;;;;;;;5.82;2.78;;;;;;;9.28;54.38;100821.38;5050427;28;20316;-85
2022/11/13 04:24:53;;;;;;;6.50;2.10;;;;;;;9.41;53.72;100817.66;5051289;28;20454;-84
2022/11/13 04:27:18;;;;;;;7.90;2.63;;;;;;;9.33;54.13;100816.09;5051120;28;20265;-85
2022/11/13 04:29:43;;;;;;;5.35;2.03;;;;;;;9.19;55.57;100817.34;5051019;28;20433;-84
2022/11/13 04:32:09;;;;;;;4.83;2.60;;;;;;;9.13;56.25;100816.38;5050649;28;20108;-84
2022/11/13 04:34:34;;;;;;;4.63;1.93;;;;;;;9.19;54.54;100814.63;5051290;28;20865;-85
2022/11/13 04:36:59;;;;;;;3.42;1.98;;;;;;;9.32;54.86;100810.88;5050550;28;20349;-85
2022/11/13 04:39:24;;;;;;;4.70;2.28;;;;;;;9.33;54.10;100809.81;5050883;28;20025;-85
2022/11/13 04:44:33;;;;;;;4.60;2.63;;;;;;;9.58;52.65;100806.09;5051412;28;20095;-85
2022/11/13 04:46:59;;;;;;;3.80;2.10;;;;;;;9.54;51.64;100802.22;5050366;28;20037;-86
2022/11/13 04:49:24;;;;;;;5.13;3.27;;;;;;;9.68;50.41;100797.38;5050621;28;20024;-85
2022/11/13 04:51:49;;;;;;;5.40;2.43;;;;;;;9.63;50.60;100798.06;5049621;28;20268;-85
2022/11/13 04:54:15;;;;;;;8.60;2.70;;;;;;;9.46;51.48;100793.28;5050070;28;20277;-85
2022/11/13 04:56:40;;;;;;;5.35;2.97;;;;;;;9.75;51.45;100781.75;5050788;28;20670;-85
2022/11/13 04:59:05;;;;;;;4.85;2.10;;;;;;;9.76;51.28;100788.03;5050773;28;20498;-85
2022/11/13 05:01:30;;;;;;;6.13;2.80;;;;;;;9.65;52.10;100784.22;5050912;28;20021;-85
2022/11/13 05:03:56;;;;;;;8.73;3.20;;;;;;;9.58;51.93;100781.59;5034457;28;20294;-85
2022/11/13 05:06:21;;;;;;;6.05;2.40;;;;;;;9.51;51.82;100791.75;5030837;28;20263;-85
2022/11/13 05:08:46;;;;;;;5.00;2.65;;;;;;;9.61;50.92;100786.59;5030484;28;20124;-85
2022/11/13 05:11:12;;;;;;;6.03;2.27;;;;;;;9.63;51.89;100784.47;5030502;28;20053;-85
2022/11/13 05:13:37;;;;;;;5.35;2.60;;;;;;;9.57;51.70;100779.94;5030123;28;20397;-85
2022/11/13 05:16:07;;;;;;;5.72;2.88;;;;;;;9.69;51.20;100782.69;5029025;28;20585;-85
2022/11/13 05:18:33;;;;;;;4.88;2.40;;;;;;;9.68;50.82;100773.69;5036626;28;20024;-85
2022/11/13 05:20:59;;;;;;;6.60;3.05;;;;;;;9.69;51.35;100771.81;5050150;28;20079;-85
2022/11/13 05:23:24;;;;;;;5.40;2.65;;;;;;;9.54;51.96;100769.53;5049818;28;20037;-85
2022/11/13 05:25:50;;;;;;;5.22;2.83;;;;;;;9.46;52.29;100767.97;5050849;28;20036;-85
2022/11/13 05:28:16;;;;;;;6.45;2.72;;;;;;;9.36;52.39;100763.06;5057048;28;20487;-85
2022/11/13 05:30:41;;;;;;;6.13;3.42;;;;;;;9.41;52.16;100759.66;5057162;28;20059;-85
2022/11/13 05:33:06;;;;;;;4.70;2.73;;;;;;;9.53;51.85;100765.13;5056464;28;20432;-85
2022/11/13 05:35:32;;;;;;;7.28;3.70;;;;;;;9.51;51.47;100759.94;5056961;28;20256;-85
2022/11/13 05:38:01;;;;;;;5.10;2.92;;;;;;;9.54;51.00;100754.00;5056620;28;20060;-85
2022/11/13 05:40:27;;;;;;;4.40;1.67;;;;;;;9.55;50.63;100749.41;5057233;28;20020;-86
2022/11/13 05:42:53;;;;;;;3.70;1.73;;;;;;;9.23;52.33;100753.25;5056549;28;20420;-85
2022/11/13 05:45:19;;;;;;;4.43;2.25;;;;;;;8.91;53.71;100754.28;5056604;28;20052;-85
2022/11/13 05:47:44;;;;;;;5.22;2.13;;;;;;;9.01;53.93;100755.63;5056877;28;20024;-85
2022/11/13 05:50:09;;;;;;;5.30;3.00;;;;;;;8.80;55.50;100757.78;5057099;28;20040;-85
2022/11/13 05:52:35;;;;;;;3.85;2.40;;;;;;;8.36;56.46;100747.81;5056056;28;20346;-86
2022/11/13 05:55:00;;;;;;;4.77;2.37;;;;;;;8.61;55.90;100738.75;5057029;28;20047;-85
2022/11/13 05:57:25;;;;;;;5.90;2.17;;;;;;;8.63;54.51;100744.78;5056953;28;20266;-86
2022/11/13 05:59:50;;;;;;;4.32;2.20;;;;;;;8.69;53.61;100746.59;5056878;28;20025;-85
2022/11/13 06:02:16;;;;;;;5.13;2.17;;;;;;;8.59;54.19;100733.53;5053881;28;20071;-85
2022/11/13 06:04:41;;;;;;;5.73;2.77;;;;;;;9.00;52.83;100735.75;5035780;28;20282;-85
2022/11/13 06:07:06;;;;;;;5.00;2.10;;;;;;;8.72;54.04;100729.84;5036580;28;20689;-85
2022/11/13 06:09:31;;;;;;;7.23;2.23;;;;;;;8.55;54.76;100726.03;5036508;28;20344;-85
2022/11/13 06:11:57;;;;;;;1.60;1.03;;;;;;;8.55;54.34;100731.47;5035919;28;20378;-86
2022/11/13 06:14:22;;;;;;;5.57;2.57;;;;;;;8.34;55.74;100720.03;5055870;28;20282;-85
2022/11/13 06:16:47;;;;;;;4.20;2.20;;;;;;;8.53;55.48;100723.56;5056446;28;20265;-86
2022/11/13 06:19:12;;;;;;;2.78;1.40;;;;;;;8.64;55.03;100714.66;5055682;28;20258;-85
2022/11/13 06:21:39;;;;;;;2.50;1.20;;;;;;;8.51;55.63;100710.19;5056396;28;20033;-86
2022/11/13 06:24:05;;;;;;;3.45;1.35;;;;;;;8.60;55.02;100708.00;5038649;28;20723;-86
2022/11/13 06:26:34;;;;;;;3.53;1.60;;;;;;;8.57;55.70;100718.50;5036441;28;20112;-85
2022/11/13 06:29:01;;;;;;;3.88;1.27;;;;;;;8.52;55.33;100711.84;5036720;28;20026;-86
2022/11/13 06:31:29;;;;;;;2.58;1.50;;;;;;;8.47;55.94;100703.56;5036294;28;20467;-85
2022/11/13 06:33:57;;;;;;;5.28;2.38;;;;;;;8.58;54.79;100712.88;5051790;28;20090;-86
2022/11/13 06:36:25;;;;;;;4.60;1.95;;;;;;;8.53;55.75;100707.25;5055937;28;20516;-86
2022/11/13 06:38:51;;;;;;;3.28;1.40;;;;;;;8.58;55.06;100701.16;5053081;28;20029;-85
2022/11/13 06:41:20;;;;;;;4.13;2.33;;;;;;;8.63;55.17;100702.13;5053226;28;20086;-85
2022/11/13 06:43:46;;;;;;;2.72;1.23;;;;;;;8.67;55.25;100702.50;5051395;28;20025;-85
2022/11/13 06:46:20;;;;;;;3.92;1.27;;;;;;;8.81;55.39;100695.00;5052735;28;20412;-85
2022/11/13 06:48:46;;;;;;;5.20;2.15;;;;;;;8.81;54.44;100705.88;5052887;28;20040;-85
2022/11/13 06:51:20;;;;;;;2.10;0.95;;;;;;;8.81;54.44;100696.88;5053018;28;20036;-85
2022/11/13 06:53:46;;;;;;;;;;;;;;;8.33;55.99;100704.75;5038509;28;20038;-85
2022/11/13 06:56:11;;;;;;;2.67;1.35;;;;;;;8.37;56.02;100692.38;5033140;28;19909;-85
2022/11/13 06:58:37;;;;;;;6.32;3.30;;;;;;;8.67;55.69;100699.78;5034812;28;20033;-85
2022/11/13 07:01:29;;;;;;;4.70;2.05;;;;;;;8.59;55.27;100694.66;5053160;28;20037;-85
2022/11/13 07:03:54;;;;;;;5.55;2.08;;;;;;;8.70;55.10;100691.19;5049766;28;20056;-85
2022/11/13 07:06:21;;;;;;;5.57;2.00;;;;;;;8.44;56.92;100689.59;5052642;28;20029;-85
2022/11/13 07:08:47;;;;;;;4.75;2.42;;;;;;;8.52;56.82;100687.38;5052603;28;20037;-84
2022/11/13 07:11:16;;;;;;;4.40;2.22;;;;;;;8.76;55.79;100694.88;5052392;28;20119;-84
2022/11/13 07:13:42;;;;;;;7.05;3.13;;;;;;;8.68;56.22;100696.00;5038147;28;20500;-85
2022/11/13 07:16:09;;;;;;;3.55;1.33;;;;;;;8.53;56.31;100689.06;5032382;28;20053;-85
2022/11/13 07:18:35;;;;;;;4.15;1.63;;;;;;;8.56;56.35;100686.94;5040487;28;20037;-85
2022/11/13 07:21:09;;;;;;;4.63;2.33;;;;;;;8.52;56.68;100695.53;5053014;28;20059;-85
2022/11/13 07:23:35;;;;;;;;;;;;;;;8.49;57.17;100698.72;5052126;28;20360;-85
2022/11/13 07:26:02;;;;;;;2.95;1.25;;;;;;;8.29;57.92;100691.66;5052025;28;19917;-85
2022/11/13 07:28:27;;;;;;;8.18;2.92;;;;;;;8.22;58.42;100690.88;5050981;28;20062;-85
2022/11/13 07:30:55;;;;;;;4.53;1.88;;;;;;;8.33;58.07;100686.56;5037539;28;20081;-85
2022/11/13 07:33:20;;;;;;;8.65;2.20;;;;;;;8.23;59.09;100687.13;5042389;28;20037;-85
2022/11/13 07:35:46;;;;;;;5.60;2.77;;;;;;;8.36;58.99;100690.75;5051809;28;20367;-85
2022/11/13 07:38:11;;;;;;;5.53;3.05;;;;;;;8.48;58.86;100686.19;5051513;28;20262;-85
2022/11/13 07:40:36;;;;;;;6.00;2.27;;;;;;;8.57;58.20;100684.00;5051530;28;20071;-85
2022/11/13 07:43:02;;;;;;;6.10;2.40;;;;;;;8.72;59.00;100678.19;5046373;28;20301;-86
2022/11/13 07:45:28;;;;;;;4.13;1.83;;;;;;;8.71;58.36;100684.66;5051743;28;20270;-87
2022/11/13 07:48:01;;;;;;;4.88;2.47;;;;;;;8.66;58.43;100672.84;5050926;28;20747;-85
2022/11/13 07:50:33;;;;;;;2.60;1.55;;;;;;;8.38;60.02;100675.84;5050515;28;20037;-85
2022/11/13 07:53:00;;;;;;;4.68;2.38;;;;;;;8.52;59.39;100679.22;5052458;28;20036;-85
2022/11/13 07:55:26;;;;;;;6.80;2.55;;;;;;;8.58;59.15;100679.41;5053289;28;20084;-85
2022/11/13 07:57:58;;;;;;;5.55;2.08;;;;;;;8.53;59.00;100670.03;5051242;28;20117;-85
2022/11/13 08:00:24;;;;;;;3.80;1.45;;;;;;;8.63;58.99;100674.09;5051212;28;20029;-86
2022/11/13 08:02:50;;;;;;;4.30;1.40;;;;;;;8.70;58.49;100668.59;5050513;28;20064;-85
2022/11/13 08:05:15;;;;;;;1.50;0.90;;;;;;;8.81;58.54;100666.97;5051207;28;20064;-85
2022/11/13 08:07:41;;;;;;;3.40;1.58;;;;;;;9.05;57.47;100664.34;5050918;28;20607;-85
2022/11/13 08:10:06;;;;;;;3.90;1.05;;;;;;;9.15;57.48;100666.50;5050910;28;20051;-85
2022/11/13 08:12:31;;;;;;;4.55;1.40;;;;;;;9.13;56.66;100666.72;5050531;28;20504;-85
2022/11/13 08:14:57;;;;;;;5.13;2.43;;;;;;;9.21;56.51;100663.66;5041807;28;20029;-85
2022/11/13 08:17:22;;;;;;;2.92;1.08;;;;;;;9.30;55.86;100656.00;5051385;28;20285;-85
2022/11/13 08:19:47;;;;;;;3.05;1.30;;;;;;;9.25;56.58;100657.75;5041210;28;20025;-85
2022/11/13 08:22:12;;;;;;;2.23;1.10;;;;;;;9.11;57.01;100653.34;5044740;28;20025;-85
2022/11/13 08:24:38;;;;;;;5.00;1.30;;;;;;;9.25;56.40;100657.75;5049646;28;20269;-85
2022/11/13 08:27:05;;;;;;;2.83;1.13;;;;;;;9.31;57.13;100654.09;5050930;28;20272;-85
2022/11/13 08:29:31;;;;;;;5.68;2.03;;;;;;;9.36;56.27;100648.78;5050732;28;20757;-86
2022/11/13 08:31:56;;;;;;;6.80;1.55;;;;;;;9.50;55.68;100651.28;5051145;28;20083;-85
2022/11/13 08:34:22;;;;;;;4.78;1.52;;;;;;;9.56;56.14;100645.72;5050714;28;20037;-86
2022/11/13 08:36:47;;;;;;;3.22;1.73;;;;;;;9.50;56.88;100641.22;5050639;28;20056;-85
2022/11/13 08:39:13;;;;;;;2.88;1.25;;;;;;;9.49;57.24;100638.72;5050528;28;20420;-85
2022/11/13 08:41:38;;;;;;;4.78;1.80;;;;;;;9.76;56.86;100630.91;5050749;28;20047;-85
2022/11/13 08:44:03;;;;;;;4.13;1.50;;;;;;;9.56;57.38;100631.25;5032786;28;20068;-85
2022/11/13 08:46:29;;;;;;;5.28;2.55;;;;;;;9.59;58.17;100633.53;5030698;28;20627;-85
2022/11/13 08:48:54;;;;;;;4.07;2.17;;;;;;;9.55;58.29;100625.00;5041091;28;20421;-85
2022/11/13 08:51:19;;;;;;;4.53;1.77;;;;;;;9.56;58.14;100625.81;5050464;28;20252;-85
2022/11/13 08:53:45;;;;;;;3.90;1.70;;;;;;;9.68;58.00;100623.94;5036965;28;20068;-86
2022/11/13 08:56:10;;;;;;;4.93;2.43;;;;;;;9.81;58.19;100630.19;5030047;28;20398;-85
2022/11/13 08:58:35;;;;;;;4.95;1.20;;;;;;;9.86;58.28;100624.88;5030549;28;20292;-85
2022/11/13 09:01:02;;;;;;;5.30;2.57;;;;;;;9.88;58.10;100625.47;5029616;28;20450;-85
2022/11/13 09:03:28;;;;;;;4.47;2.03;;;;;;;9.86;58.41;100624.03;5042099;28;20659;-85
2022/11/13 09:05:53;;;;;;;4.90;2.58;;;;;;;9.77;59.44;100616.22;5050615;28;20071;-85
2022/11/13 09:08:18;;;;;;;2.40;1.37;;;;;;;9.77;59.46;100609.94;5049872;28;20073;-85
2022/11/13 09:10:43;;;;;;;4.17;2.03;;;;;;;9.80;59.98;100620.38;5049657;28;20262;-86
2022/11/13 09:13:10;;;;;;;3.10;1.17;;;;;;;9.90;60.24;100612.44;5039811;28;20350;-85
2022/11/13 09:15:37;;;;;;;5.28;1.88;;;;;;;9.97;59.92;100619.63;5029108;28;20327;-85
2022/11/13 09:18:03;;;;;;;3.38;1.83;;;;;;;10.09;58.95;100615.00;5034004;28;20025;-85
2022/11/13 09:20:30;;;;;;;3.90;2.05;;;;;;;10.16;59.24;100612.97;5039700;28;20033;-85
2022/11/13 09:23:04;;;;;;;5.90;1.88;;;;;;;10.19;59.07;100619.00;5037062;28;20619;-85
2022/11/13 09:25:31;;;;;;;5.13;2.22;;;;;;;10.19;60.36;100616.28;5050204;28;20044;-85
2022/11/13 09:27:58;;;;;;;3.92;2.00;;;;;;;10.20;59.97;100607.84;5049636;28;20037;-85
2022/11/13 09:30:24;;;;;;;6.25;2.15;;;;;;;10.20;59.65;100607.03;5050278;28;20037;-85
2022/11/13 09:32:54;;;;;;;4.35;1.60;;;;;;;10.26;59.65;100617.78;5049812;28;20082;-85
2022/11/13 09:35:33;;;;;;;4.75;2.03;;;;;;;10.36;59.37;100613.59;5049444;28;20512;-85
2022/11/13 09:38:03;;;;;;;4.00;2.20;;;;;;;10.46;58.63;100605.63;5049599;28;20029;-84
2022/11/13 09:40:33;;;;;;;5.03;1.75;;;;;;;10.51;59.99;100615.84;5049577;28;20327;-85
2022/11/13 09:43:01;;;;;;;5.70;2.72;;;;;;;10.53;60.18;100610.97;5041408;28;20038;-85
2022/11/13 09:45:29;;;;;;;9.50;3.33;;;;;;;10.62;60.02;100612.22;5029621;28;20036;-85
2022/11/13 09:47:59;;;;;;;9.80;4.50;;;;;;;10.64;59.79;100608.44;5032053;28;20386;-85
2022/11/13 09:50:27;;;;;;;10.95;5.00;;;;;;;10.57;60.54;100614.88;5050097;28;20029;-85
2022/11/13 09:52:53;;;;;;;10.82;4.82;;;;;;;10.64;60.90;100611.97;5049186;28;20025;-85
2022/11/13 09:55:27;;;;;;;15.40;6.80;;;;;;;10.77;60.10;100610.03;5049583;28;20040;-85
2022/11/13 09:57:52;;;;;;;19.38;6.18;;;;;;;10.79;60.05;100614.16;5049744;28;20041;-85
2022/11/13 10:00:19;;;;;;;11.67;4.90;;;;;;;10.85;60.80;100605.00;5048626;28;20048;-85
2022/11/13 10:03:23;;;;;;;9.70;3.67;;;;;;;10.84;60.22;100611.53;5048985;28;20053;-85
2022/11/13 10:06:09;;;;;;;5.68;3.50;;;;;;;10.93;60.52;100605.66;5047826;28;20101;-85
2022/11/13 10:08:53;;;;;;;5.78;3.20;;;;;;;10.92;61.00;100604.03;5049704;28;20094;-86
2022/11/13 10:11:43;;;;;;;9.55;3.13;;;;;;;11.14;60.13;100603.28;5049638;28;20032;-85
2022/11/13 10:14:17;;;;;;;6.82;2.38;;;;;;;11.22;60.83;100594.69;5043254;28;20751;-85
2022/11/13 10:16:55;;;;;;;6.05;2.63;;;;;;;11.08;61.95;100588.75;5033848;28;20425;-86
2022/11/13 10:19:33;;;;;;;5.53;2.53;;;;;;;11.06;62.66;100591.72;5046785;28;20064;-87
2022/11/13 10:22:11;;;;;;;4.40;2.58;;;;;;;11.31;61.66;100579.53;5053022;28;20294;-86
2022/11/13 10:24:42;;;;;;;5.63;2.42;;;;;;;11.39;61.57;100581.00;5053188;28;20036;-86
2022/11/13 10:27:12;;;;;;;4.93;2.42;;;;;;;11.50;61.15;100579.28;5053176;28;20025;-86
2022/11/13 10:29:38;;;;;;;4.35;2.30;;;;;;;11.37;62.26;100574.16;5053359;28;20032;-86
2022/11/13 10:32:28;;;;;;;8.25;2.00;;;;;;;11.34;62.16;100570.03;5047822;28;20063;-86
2022/11/13 10:35:40;;;;;;;8.35;2.75;;;;;;;11.67;61.67;100576.47;5053150;28;20037;-85
2022/11/13 10:38:20;;;;;;;7.43;3.10;;;;;;;11.72;61.41;100573.00;5031096;28;20041;-85
2022/11/13 10:40:45;;;;;;;5.20;3.10;;;;;;;11.61;62.67;100568.50;5032941;28;20034;-85
2022/11/13 10:43:14;;;;;;;7.53;3.70;;;;;;;11.68;62.49;100558.19;5042135;28;20107;-85
2022/11/13 10:45:42;;;;;;;8.15;3.70;;;;;;;11.79;62.19;100560.00;5053092;28;20127;-86
2022/11/13 10:48:26;;;;;;;6.00;3.38;;;;;;;11.87;62.60;100556.00;5052980;28;20036;-85
2022/11/13 10:51:03;;;;;;;8.48;3.08;;;;;;;11.89;61.84;100555.75;5052456;28;20047;-85
2022/11/13 10:53:47;;;;;;;8.52;3.65;;;;;;;11.76;63.18;100541.38;5038373;28;20506;-86
2022/11/13 10:56:24;;;;;;;4.68;3.08;;;;;;;12.01;61.76;100537.31;5031492;28;20140;-85
2022/11/13 10:59:09;;;;;;;4.40;2.22;;;;;;;12.10;61.62;100534.94;5031367;28;20030;-85
2022/11/13 11:01:34;;;;;;;6.13;3.75;;;;;;;12.13;61.86;100530.91;5031696;28;20479;-85
2022/11/13 11:04:03;;;;;;;10.23;3.78;;;;;;;12.19;61.30;100535.34;5031057;28;20041;-86
2022/11/13 11:06:37;;;;;;;6.13;3.33;;;;;;;12.15;61.52;100523.25;5032020;28;20042;-85
2022/11/13 11:09:25;;;;;;;7.00;3.45;;;;;;;11.98;62.67;100528.81;5032253;28;20601;-85
2022/11/13 11:12:22;;;;;;;11.90;4.13;;;;;;;12.11;62.73;100519.41;5032382;28;20407;-86
2022/11/13 11:14:56;;;;;;;9.13;3.17;;;;;;;12.10;63.11;100510.31;5032525;28;20139;-85
2022/11/13 11:17:26;;;;;;;11.07;3.80;;;;;;;12.21;62.38;100511.31;5032221;28;20137;-85
2022/11/13 11:20:16;;;;;;;7.00;3.42;;;;;;;12.32;62.54;100501.31;5050606;28;20516;-85
2022/11/13 11:22:44;;;;;;;6.82;3.00;;;;;;;12.40;62.21;100501.91;5050864;28;20041;-86
2022/11/13 11:25:16;;;;;;;8.85;4.28;;;;;;;12.43;62.36;100496.75;5051499;28;20103;-85
2022/11/13 11:28:01;;;;;;;8.75;3.88;;;;;;;12.41;59.37;100489.91;5052020;28;20500;-85
2022/11/13 11:30:32;;;;;;;6.07;2.35;;;;;;;12.56;61.64;100490.03;5052063;28;20052;-86
2022/11/13 11:33:17;;;;;;;6.95;3.35;;;;;;;12.41;62.09;100485.25;5043232;28;20053;-86
2022/11/13 11:36:12;;;;;;;7.78;3.42;;;;;;;12.61;61.01;100478.28;5031934;28;20038;-85
2022/11/13 11:38:58;;;;;;;7.57;3.35;;;;;;;12.71;57.50;100492.06;5026033;28;20585;-86